Time;durP1;ratioP1;P1;durP2;ratioP2;P2;SDS_P1;SDS_P2;PMS_P1;PMS_P2;Temp;Humidity;BMP_temperature;BMP_pressure;BME280_temperature;BME280_humidity;BME280_pressure;Samples;Min_cycle;Max_cycle;Signal;HPM_P1;HPM_P2
2021/06/28 00:01:07;;;;;;;;;;;17.70;77.90;;;;;;4976030;28;20001;-64
2021/06/28 00:03:33;;;;;;;;;;;17.70;78.10;;;;;;4975785;28;20298;-64
2021/06/28 00:05:59;;;;;;;;;;;17.70;78.20;;;;;;4975790;28;20406;-64
2021/06/28 00:08:26;;;;;;;;;;;17.70;78.30;;;;;;4975260;28;19918;-64
2021/06/28 00:10:51;;;;;;;;;;;17.60;78.40;;;;;;4975906;28;19918;-64
2021/06/28 00:13:17;;;;;;;;;;;17.50;78.50;;;;;;4975867;28;20188;-64
2021/06/28 00:15:42;;;;;;;;;;;17.50;78.70;;;;;;4975233;28;20390;-64
2021/06/28 00:18:09;;;;;;;;;;;17.50;78.90;;;;;;4958039;28;19922;-64
2021/06/28 00:20:35;;;;;;;;;;;17.50;79.10;;;;;;4975810;28;19946;-63
2021/06/28 00:23:01;;;;;;;;;;;17.40;79.20;;;;;;4973879;28;19957;-63
2021/06/28 00:25:27;;;;;;;;;;;17.40;79.40;;;;;;4974185;28;19925;-63
2021/06/28 00:27:53;;;;;;;;;;;17.40;79.70;;;;;;4974902;28;19919;-63
2021/06/28 00:30:19;;;;;;;;;;;17.30;79.80;;;;;;4975464;28;19918;-63
2021/06/28 00:32:46;;;;;;;;;;;17.30;80.00;;;;;;4975432;28;19918;-64
2021/06/28 00:35:12;;;;;;;;;;;17.20;80.10;;;;;;4974934;28;19973;-64
2021/06/28 00:37:38;;;;;;;;;;;17.20;80.30;;;;;;4990037;28;19926;-64
2021/06/28 00:40:06;;;;;;;;;;;17.20;80.60;;;;;;4975291;28;19925;-64
2021/06/28 00:42:31;;;;;;;;;;;17.20;81.20;;;;;;4974823;28;19918;-64
2021/06/28 00:44:57;;;;;;;;;;;17.20;80.90;;;;;;4973926;28;19918;-63
2021/06/28 00:47:22;;;;;;;;;;;17.20;81.10;;;;;;4974827;28;20349;-63
2021/06/28 00:49:48;;;;;;;;;;;17.20;81.30;;;;;;4975150;28;19946;-63
2021/06/28 00:52:14;;;;;;;;;;;17.20;81.40;;;;;;4975058;28;19918;-63
2021/06/28 00:54:40;;;;;;;;;;;17.10;81.50;;;;;;4974667;28;19972;-64
2021/06/28 00:57:05;;;;;;;;;;;17.10;81.60;;;;;;4974596;28;19926;-64
2021/06/28 00:59:32;;;;;;;;;;;17.10;81.80;;;;;;4974926;28;19919;-64
2021/06/28 01:01:59;;;;;;;;;;;17.10;81.90;;;;;;4974568;28;19929;-64
2021/06/28 01:04:25;;;;;;;;;;;17.00;82.10;;;;;;4973606;28;19980;-64
2021/06/28 01:06:50;;;;;;;;;;;17.00;82.30;;;;;;4972899;28;20353;-65
2021/06/28 01:09:16;;;;;;;;;;;17.00;82.40;;;;;;4974457;28;19918;-64
2021/06/28 01:11:42;;;;;;;;;;;17.00;82.50;;;;;;4974625;28;19991;-64
2021/06/28 01:14:07;;;;;;;;;;;17.00;82.60;;;;;;4974350;28;20298;-64
2021/06/28 01:16:33;;;;;;;;;;;16.90;82.70;;;;;;4974551;28;19926;-64
2021/06/28 01:18:59;;;;;;;;;;;16.90;82.90;;;;;;4974351;28;19922;-64
2021/06/28 01:21:27;;;;;;;;;;;16.90;83.50;;;;;;4974171;28;19925;-64
2021/06/28 01:23:53;;;;;;;;;;;16.90;83.20;;;;;;4974574;28;19949;-64
2021/06/28 01:26:18;;;;;;;;;;;16.90;83.30;;;;;;4974139;28;19980;-64
2021/06/28 01:28:44;;;;;;;;;;;16.90;83.50;;;;;;4956687;28;19922;-61
2021/06/28 01:31:10;;;;;;;;;;;16.90;83.60;;;;;;4974365;28;20012;-61
2021/06/28 01:33:36;;;;;;;;;;;16.90;83.80;;;;;;4973886;28;19918;-61
2021/06/28 01:36:02;;;;;;;;;;;16.80;83.90;;;;;;4974199;28;20009;-61
2021/06/28 01:38:28;;;;;;;;;;;16.80;84.00;;;;;;4973592;28;19922;-61
2021/06/28 01:40:54;;;;;;;;;;;16.90;84.10;;;;;;4974088;28;19925;-61
2021/06/28 01:43:23;;;;;;;;;;;16.80;84.30;;;;;;4974186;28;20390;-61
2021/06/28 01:45:49;;;;;;;;;;;16.80;84.40;;;;;;4972169;28;19927;-61
2021/06/28 01:48:15;;;;;;;;;;;16.80;84.60;;;;;;4973864;28;19922;-61
2021/06/28 01:50:41;;;;;;;;;;;16.70;84.60;;;;;;4974002;28;19953;-61
2021/06/28 01:53:07;;;;;;;;;;;16.70;84.70;;;;;;4973482;28;19925;-61
2021/06/28 01:55:33;;;;;;;;;;;16.70;84.90;;;;;;4973872;28;19929;-62
2021/06/28 01:58:00;;;;;;;;;;;16.70;85.10;;;;;;4973212;28;19951;-62
2021/06/28 02:00:33;;;;;;;;;;;16.60;85.20;;;;;;4973912;28;20065;-62
2021/06/28 02:03:03;;;;;;;;;;;16.60;85.40;;;;;;4973405;28;19925;-62
2021/06/28 02:05:30;;;;;;;;;;;16.60;85.50;;;;;;4973600;28;20291;-62
2021/06/28 02:07:55;;;;;;;;;;;16.60;85.60;;;;;;4972122;28;19919;-62
2021/06/28 02:10:21;;;;;;;;;;;16.60;85.80;;;;;;4971891;28;19924;-62
2021/06/28 02:12:47;;;;;;;;;;;16.50;85.80;;;;;;4972396;28;19933;-62
2021/06/28 02:15:23;;;;;;;;;;;16.50;85.90;;;;;;4972226;28;19965;-62
2021/06/28 02:17:48;;;;;;;;;;;16.50;86.10;;;;;;4972930;28;20374;-62
2021/06/28 02:20:14;;;;;;;;;;;16.50;86.10;;;;;;4972318;28;19977;-62
2021/06/28 02:22:40;;;;;;;;;;;16.50;86.30;;;;;;4972315;28;19973;-62
2021/06/28 02:25:07;;;;;;;;;;;16.40;86.30;;;;;;4973367;28;19922;-62
2021/06/28 02:27:32;;;;;;;;;;;16.40;86.50;;;;;;4973138;28;20334;-62
2021/06/28 02:29:58;;;;;;;;;;;16.40;86.60;;;;;;4972970;28;19926;-62
2021/06/28 02:32:23;;;;;;;;;;;16.50;86.80;;;;;;4973291;28;20400;-62
2021/06/28 02:34:49;;;;;;;;;;;16.40;86.70;;;;;;4972845;28;19922;-62
2021/06/28 02:37:14;;;;;;;;;;;16.30;86.70;;;;;;4972818;28;19976;-62
2021/06/28 02:39:40;;;;;;;;;;;16.30;86.80;;;;;;4973072;28;19996;-62
2021/06/28 02:42:06;;;;;;;;;;;16.30;86.90;;;;;;4972649;28;19949;-62
2021/06/28 02:44:31;;;;;;;;;;;16.30;87.00;;;;;;4973228;28;19918;-62
2021/06/28 02:46:57;;;;;;;;;;;16.20;87.10;;;;;;4971278;28;19922;-62
2021/06/28 02:49:22;;;;;;;;;;;16.30;87.30;;;;;;4972538;28;19968;-62
2021/06/28 02:51:48;;;;;;;;;;;16.20;87.30;;;;;;4973078;28;19966;-62
2021/06/28 02:54:13;;;;;;;;;;;16.20;87.40;;;;;;4971267;28;20401;-62
2021/06/28 02:56:39;;;;;;;;;;;16.20;87.50;;;;;;4971320;28;19922;-62
2021/06/28 02:59:06;;;;;;;;;;;16.30;87.60;;;;;;4971535;28;19926;-62
2021/06/28 03:01:32;;;;;;;;;;;16.20;87.60;;;;;;4972565;28;19918;-62
2021/06/28 03:03:58;;;;;;;;;;;16.20;87.70;;;;;;4971576;28;19969;-62
2021/06/28 03:06:23;;;;;;;;;;;16.20;87.70;;;;;;4972832;28;19925;-62
2021/06/28 03:08:49;;;;;;;;;;;16.20;87.80;;;;;;4972089;28;19918;-62
2021/06/28 03:11:16;;;;;;;;;;;16.20;87.80;;;;;;4972742;28;19918;-62
2021/06/28 03:13:42;;;;;;;;;;;16.20;87.90;;;;;;4971027;28;19918;-62
2021/06/28 03:16:08;;;;;;;;;;;16.20;88.00;;;;;;4972853;28;19929;-62
2021/06/28 03:18:34;;;;;;;;;;;16.20;88.10;;;;;;4972502;28;19941;-62
2021/06/28 03:20:59;;;;;;;;;;;16.20;88.20;;;;;;4971086;28;19925;-62
2021/06/28 03:23:25;;;;;;;;;;;16.20;88.30;;;;;;4972694;28;19926;-62
2021/06/28 03:25:51;;;;;;;;;;;16.20;88.50;;;;;;4972375;28;20366;-62
2021/06/28 03:28:17;;;;;;;;;;;16.20;88.50;;;;;;4972252;28;19945;-62
2021/06/28 03:30:42;;;;;;;;;;;16.20;88.60;;;;;;4972682;28;20058;-62
2021/06/28 03:33:08;;;;;;;;;;;16.30;88.70;;;;;;4973219;28;20299;-62
2021/06/28 03:35:34;;;;;;;;;;;16.20;88.70;;;;;;4976448;28;20394;-62
2021/06/28 03:37:59;;;;;;;;;;;16.20;88.70;;;;;;4976121;28;20677;-62
2021/06/28 03:40:25;;;;;;;;;;;16.30;88.80;;;;;;4975988;28;19918;-61
2021/06/28 03:42:51;;;;;;;;;;;16.30;88.90;;;;;;4976419;28;20306;-61
2021/06/28 03:45:17;;;;;;;;;;;16.30;89.00;;;;;;4976005;28;20394;-62
2021/06/28 03:47:43;;;;;;;;;;;16.30;89.10;;;;;;4974397;28;20294;-62
2021/06/28 03:50:09;;;;;;;;;;;16.40;89.20;;;;;;4976332;28;19918;-62
2021/06/28 03:52:35;;;;;;;;;;;16.40;89.30;;;;;;4975780;28;20299;-62
2021/06/28 03:55:00;;;;;;;;;;;16.40;89.30;;;;;;4976158;28;19918;-62
2021/06/28 03:57:26;;;;;;;;;;;16.50;89.30;;;;;;4975743;28;19922;-62
2021/06/28 03:59:52;;;;;;;;;;;16.50;89.30;;;;;;4974456;28;20363;-62
2021/06/28 04:02:17;;;;;;;;;;;16.60;89.30;;;;;;4974659;28;19919;-62
2021/06/28 04:04:48;;;;;;;;;;;16.60;89.30;;;;;;4975559;28;19949;-62
2021/06/28 04:07:14;;;;;;;;;;;16.60;89.20;;;;;;4975713;28;19925;-61
2021/06/28 04:09:40;;;;;;;;;;;16.70;89.30;;;;;;4976152;28;19930;-61
2021/06/28 04:12:06;;;;;;;;;;;16.70;89.30;;;;;;4975336;28;20001;-62
2021/06/28 04:14:31;;;;;;;;;;;16.70;89.50;;;;;;4974569;28;20456;-62
2021/06/28 04:16:57;;;;;;;;;;;16.80;89.50;;;;;;4974886;28;19929;-62
2021/06/28 04:19:22;;;;;;;;;;;16.80;89.60;;;;;;4974354;28;19918;-62
2021/06/28 04:21:48;;;;;;;;;;;16.90;89.60;;;;;;4975660;28;19989;-62
2021/06/28 04:24:13;;;;;;;;;;;17.00;89.50;;;;;;4975395;28;20069;-62
2021/06/28 04:26:39;;;;;;;;;;;17.00;90.00;;;;;;4975360;28;19922;-62
2021/06/28 04:29:04;;;;;;;;;;;17.10;89.60;;;;;;4974245;28;20263;-62
2021/06/28 04:31:31;;;;;;;;;;;17.10;89.60;;;;;;4975032;28;20398;-62
2021/06/28 04:33:57;;;;;;;;;;;17.20;89.80;;;;;;4975484;28;19918;-62
2021/06/28 04:36:23;;;;;;;;;;;17.20;89.70;;;;;;4974925;28;19973;-62
2021/06/28 04:38:48;;;;;;;;;;;17.30;89.70;;;;;;4974994;28;19918;-62
2021/06/28 04:41:14;;;;;;;;;;;17.40;89.70;;;;;;4973965;28;19922;-62
2021/06/28 04:43:39;;;;;;;;;;;17.40;89.60;;;;;;4974882;28;19922;-63
2021/06/28 04:46:05;;;;;;;;;;;17.50;89.60;;;;;;4974029;28;20445;-62
2021/06/28 04:48:31;;;;;;;;;;;17.60;89.60;;;;;;4974959;28;20464;-62
2021/06/28 04:50:56;;;;;;;;;;;17.60;89.50;;;;;;4974783;28;19978;-65
2021/06/28 04:53:22;;;;;;;;;;;17.70;89.50;;;;;;4975126;28;19918;-64
2021/06/28 04:55:47;;;;;;;;;;;17.80;89.60;;;;;;4974924;28;20303;-65
2021/06/28 04:58:13;;;;;;;;;;;17.90;89.50;;;;;;4974189;28;19922;-64
2021/06/28 05:00:39;;;;;;;;;;;18.00;89.40;;;;;;4973617;28;20011;-64
2021/06/28 05:03:04;;;;;;;;;;;18.10;89.30;;;;;;4973188;28;20068;-62
2021/06/28 05:05:30;;;;;;;;;;;18.20;89.30;;;;;;4974698;28;19918;-65
2021/06/28 05:07:56;;;;;;;;;;;18.20;89.10;;;;;;4974546;28;19922;-65
2021/06/28 05:10:22;;;;;;;;;;;18.30;88.90;;;;;;4959881;28;19919;-65
2021/06/28 05:12:48;;;;;;;;;;;18.40;89.00;;;;;;4954048;28;20302;-65
2021/06/28 05:15:14;;;;;;;;;;;18.60;88.90;;;;;;4971914;28;19928;-63
2021/06/28 05:17:40;;;;;;;;;;;18.70;88.70;;;;;;4971417;28;19914;-65
2021/06/28 05:20:06;;;;;;;;;;;18.80;88.50;;;;;;4974311;28;20017;-65
2021/06/28 05:22:32;;;;;;;;;;;19.00;88.40;;;;;;4974221;28;19965;-64
2021/06/28 05:24:58;;;;;;;;;;;19.20;88.30;;;;;;4972898;28;20402;-64
2021/06/28 05:27:23;;;;;;;;;;;19.30;88.00;;;;;;4974054;28;20014;-64
2021/06/28 05:29:55;;;;;;;;;;;19.50;87.60;;;;;;4973880;28;20020;-64
2021/06/28 05:32:24;;;;;;;;;;;19.60;87.10;;;;;;4974325;28;19922;-64
2021/06/28 05:34:50;;;;;;;;;;;19.80;86.80;;;;;;4973843;28;19918;-64
2021/06/28 05:37:16;;;;;;;;;;;19.90;86.30;;;;;;4973296;28;19922;-65
2021/06/28 05:39:42;;;;;;;;;;;20.10;85.80;;;;;;4972928;28;19918;-64
2021/06/28 05:42:08;;;;;;;;;;;20.20;85.30;;;;;;4971322;28;19997;-65
2021/06/28 05:44:34;;;;;;;;;;;20.40;85.20;;;;;;4956799;28;20387;-65
2021/06/28 05:47:00;;;;;;;;;;;21.00;87.00;;;;;;4973167;28;19968;-65
2021/06/28 05:49:25;;;;;;;;;;;22.20;91.10;;;;;;4973862;28;20367;-64
2021/06/28 05:51:51;;;;;;;;;;;23.70;91.10;;;;;;4973947;28;20316;-65
2021/06/28 05:54:16;;;;;;;;;;;24.80;88.50;;;;;;4973476;28;19918;-65
2021/06/28 05:56:42;;;;;;;;;;;25.40;83.60;;;;;;4973259;28;19922;-65
2021/06/28 05:59:07;;;;;;;;;;;25.60;79.40;;;;;;4973804;28;20298;-65
2021/06/28 06:01:33;;;;;;;;;;;25.60;77.50;;;;;;4963721;28;19952;-63
2021/06/28 06:03:59;;;;;;;;;;;26.30;78.60;;;;;;4954022;28;19965;-63
2021/06/28 06:06:24;;;;;;;;;;;27.50;79.20;;;;;;4954224;28;19918;-63
2021/06/28 06:08:50;;;;;;;;;;;28.60;73.80;;;;;;4967844;28;19929;-63
2021/06/28 06:11:16;;;;;;;;;;;29.40;71.80;;;;;;4954162;28;19925;-63
2021/06/28 06:13:41;;;;;;;;;;;30.30;70.20;;;;;;4953249;28;19930;-64
2021/06/28 06:16:07;;;;;;;;;;;31.20;68.00;;;;;;4953951;28;20018;-64
2021/06/28 06:18:33;;;;;;;;;;;31.90;63.50;;;;;;4953044;28;19922;-64
2021/06/28 06:20:58;;;;;;;;;;;32.50;61.70;;;;;;4953403;28;20287;-64
2021/06/28 06:23:24;;;;;;;;;;;33.10;59.10;;;;;;4968433;28;19925;-64
2021/06/28 06:25:49;;;;;;;;;;;33.80;57.60;;;;;;4953884;28;19925;-64
2021/06/28 06:28:15;;;;;;;;;;;34.20;54.70;;;;;;4953117;28;20992;-63
2021/06/28 06:30:42;;;;;;;;;;;34.50;51.90;;;;;;4970031;28;19922;-63
2021/06/28 06:33:08;;;;;;;;;;;34.80;51.20;;;;;;4972599;28;19934;-64
2021/06/28 06:35:34;;;;;;;;;;;35.40;50.30;;;;;;4972337;28;20492;-64
2021/06/28 06:38:00;;;;;;;;;;;35.90;47.80;;;;;;4969610;28;19996;-63
2021/06/28 06:40:26;;;;;;;;;;;36.00;45.80;;;;;;4967895;28;19933;-64
2021/06/28 06:42:52;;;;;;;;;;;36.30;45.50;;;;;;4972705;28;19918;-64
2021/06/28 06:45:19;;;;;;;;;;;36.50;44.40;;;;;;4966725;28;20294;-64
2021/06/28 06:47:45;;;;;;;;;;;37.00;43.40;;;;;;4969342;28;19922;-64
2021/06/28 06:50:12;;;;;;;;;;;37.40;42.40;;;;;;4971606;28;19949;-64
2021/06/28 06:52:38;;;;;;;;;;;38.00;41.00;;;;;;4972089;28;19986;-64
2021/06/28 06:55:08;;;;;;;;;;;38.40;40.70;;;;;;4968741;28;19941;-64
2021/06/28 06:57:34;;;;;;;;;;;39.00;40.20;;;;;;4971541;28;20315;-64
2021/06/28 07:00:00;;;;;;;;;;;39.60;39.30;;;;;;4970868;28;19918;-64
2021/06/28 07:02:26;;;;;;;;;;;40.10;37.90;;;;;;4972532;28;19921;-64
2021/06/28 07:04:51;;;;;;;;;;;40.50;36.70;;;;;;4971266;28;19918;-64
2021/06/28 07:07:17;;;;;;;;;;;40.60;35.30;;;;;;4971092;28;20342;-64
2021/06/28 07:09:45;;;;;;;;;;;40.90;35.20;;;;;;4971192;28;19918;-64
2021/06/28 07:12:10;;;;;;;;;;;41.50;34.80;;;;;;4972353;28;19922;-64
2021/06/28 07:14:36;;;;;;;;;;;41.80;33.20;;;;;;4972763;28;20343;-64
2021/06/28 07:17:03;;;;;;;;;;;42.10;33.00;;;;;;4972174;28;20373;-65
2021/06/28 07:19:29;;;;;;;;;;;42.50;32.40;;;;;;4972259;28;20455;-64
2021/06/28 07:21:55;;;;;;;;;;;42.90;31.60;;;;;;4972749;28;19976;-65
2021/06/28 07:24:20;;;;;;;;;;;43.30;31.00;;;;;;4972351;28;19922;-64
2021/06/28 07:26:46;;;;;;;;;;;44.00;30.90;;;;;;4972117;28;19953;-64
2021/06/28 07:29:11;;;;;;;;;;;44.50;30.00;;;;;;4972475;28;19918;-64
2021/06/28 07:31:37;;;;;;;;;;;44.30;29.10;;;;;;4972186;28;20409;-64
2021/06/28 07:34:03;;;;;;;;;;;43.70;28.80;;;;;;4971224;28;20287;-65
2021/06/28 07:36:28;;;;;;;;;;;43.30;28.70;;;;;;4972259;28;19929;-65
2021/06/28 07:38:54;;;;;;;;;;;43.10;29.00;;;;;;4971758;28;19926;-64
2021/06/28 07:41:20;;;;;;;;;;;43.00;28.90;;;;;;4971164;28;19930;-64
2021/06/28 07:43:45;;;;;;;;;;;42.20;28.60;;;;;;4971040;28;19925;-64
2021/06/28 07:46:11;;;;;;;;;;;41.60;29.20;;;;;;4970535;28;20379;-64
2021/06/28 07:48:36;;;;;;;;;;;41.40;29.50;;;;;;4972070;28;19945;-64
2021/06/28 07:51:02;;;;;;;;;;;41.30;29.70;;;;;;4971625;28;20398;-64
2021/06/28 07:53:28;;;;;;;;;;;41.20;29.80;;;;;;4972418;28;19918;-64
2021/06/28 07:55:53;;;;;;;;;;;41.20;29.90;;;;;;4972224;28;20393;-65
2021/06/28 07:58:19;;;;;;;;;;;41.40;30.00;;;;;;4971632;28;19989;-64
2021/06/28 08:00:45;;;;;;;;;;;41.60;29.60;;;;;;4969252;28;19927;-64
2021/06/28 08:03:11;;;;;;;;;;;41.30;29.10;;;;;;4969886;28;19940;-64
2021/06/28 08:05:37;;;;;;;;;;;40.00;28.50;;;;;;4970810;28;19918;-63
2021/06/28 08:08:03;;;;;;;;;;;38.60;29.00;;;;;;4963583;28;19981;-63
2021/06/28 08:10:29;;;;;;;;;;;37.60;30.00;;;;;;4967420;28;20322;-64
2021/06/28 08:12:54;;;;;;;;;;;37.20;31.10;;;;;;4970419;28;19934;-64
2021/06/28 08:15:20;;;;;;;;;;;37.60;32.50;;;;;;4971759;28;19926;-63
2021/06/28 08:17:47;;;;;;;;;;;38.00;31.40;;;;;;4953842;28;19926;-64
2021/06/28 08:20:13;;;;;;;;;;;37.90;31.20;;;;;;4969467;28;19919;-64
2021/06/28 08:22:39;;;;;;;;;;;38.10;31.70;;;;;;4974682;28;20013;-63
2021/06/28 08:25:06;;;;;;;;;;;38.60;31.50;;;;;;4974105;28;20324;-64
2021/06/28 08:27:32;;;;;;;;;;;39.10;31.40;;;;;;4974077;28;20001;-63
2021/06/28 08:29:58;;;;;;;;;;;39.50;31.30;;;;;;4975039;28;19956;-64
2021/06/28 08:32:23;;;;;;;;;;;39.80;30.50;;;;;;4975091;28;20279;-64
2021/06/28 08:34:52;;;;;;;;;;;40.30;31.40;;;;;;4973855;28;19918;-64
2021/06/28 08:37:18;;;;;;;;;;;40.80;30.00;;;;;;4972054;28;19922;-64
2021/06/28 08:39:44;;;;;;;;;;;41.20;30.00;;;;;;4973371;28;19918;-63
2021/06/28 08:42:09;;;;;;;;;;;42.00;30.00;;;;;;4974292;28;20247;-64
2021/06/28 08:44:35;;;;;;;;;;;43.30;29.30;;;;;;4974871;28;20569;-64
2021/06/28 08:47:01;;;;;;;;;;;44.80;29.30;;;;;;4973694;28;19930;-65
2021/06/28 08:49:27;;;;;;;;;;;46.70;28.90;;;;;;4972651;28;19918;-65
2021/06/28 08:51:53;;;;;;;;;;;48.30;27.70;;;;;;4974594;28;19925;-66
2021/06/28 08:54:18;;;;;;;;;;;49.40;26.50;;;;;;4974908;28;19918;-66
2021/06/28 08:56:45;;;;;;;;;;;50.20;25.60;;;;;;4972055;28;19922;-64
2021/06/28 08:59:11;;;;;;;;;;;50.90;25.00;;;;;;4974480;28;19922;-64
2021/06/28 09:01:38;;;;;;;;;;;51.20;24.30;;;;;;4973120;28;19918;-64
2021/06/28 09:04:04;;;;;;;;;;;51.20;23.70;;;;;;4974541;28;19914;-64
2021/06/28 09:06:29;;;;;;;;;;;51.60;23.80;;;;;;4972855;28;19918;-65
2021/06/28 09:09:07;;;;;;;;;;;51.60;23.00;;;;;;4972004;28;19985;-64
2021/06/28 09:11:34;;;;;;;;;;;51.30;22.80;;;;;;4967416;28;19925;-63
2021/06/28 09:14:02;;;;;;;;;;;51.50;22.90;;;;;;4957471;28;19946;-64
2021/06/28 09:16:29;;;;;;;;;;;51.70;22.60;;;;;;4953913;28;19926;-67
2021/06/28 09:19:02;;;;;;;;;;;52.10;22.70;;;;;;4953445;28;19981;-65
2021/06/28 09:21:41;;;;;;;;;;;52.10;22.20;;;;;;4955133;28;19919;-64
2021/06/28 09:24:23;;;;;;;;;;;52.00;22.20;;;;;;4959105;28;19918;-65
2021/06/28 09:26:49;;;;;;;;;;;52.30;22.20;;;;;;4973980;28;19924;-65
2021/06/28 09:29:15;;;;;;;;;;;52.70;22.20;;;;;;4973428;28;19914;-66
2021/06/28 09:31:43;;;;;;;;;;;53.10;21.90;;;;;;4972935;28;19918;-66
2021/06/28 09:34:13;;;;;;;;;;;52.90;21.90;;;;;;4973615;28;19925;-65
2021/06/28 09:36:43;;;;;;;;;;;53.00;21.60;;;;;;4973337;28;19932;-64
2021/06/28 09:39:19;;;;;;;;;;;52.50;21.60;;;;;;4972200;28;19983;-65
2021/06/28 09:41:45;;;;;;;;;;;52.30;21.60;;;;;;4973365;28;19918;-65
2021/06/28 09:44:10;;;;;;;;;;;52.40;21.50;;;;;;4974108;28;19928;-65
2021/06/28 09:46:37;;;;;;;;;;;52.70;21.50;;;;;;4972612;28;20079;-65
2021/06/28 09:49:03;;;;;;;;;;;53.00;21.40;;;;;;4973192;28;20293;-64
2021/06/28 09:51:30;;;;;;;;;;;52.50;20.90;;;;;;4973527;28;19914;-65
2021/06/28 09:54:10;;;;;;;;;;;51.80;21.00;;;;;;4973207;28;20119;-65
2021/06/28 09:56:46;;;;;;;;;;;51.60;21.30;;;;;;4973506;28;20294;-65
2021/06/28 09:59:27;;;;;;;;;;;51.60;21.00;;;;;;4973161;28;19925;-64
2021/06/28 10:02:15;;;;;;;;;;;52.00;21.50;;;;;;4973149;28;20384;-65
2021/06/28 10:04:51;;;;;;;;;;;52.50;21.10;;;;;;4973204;28;19985;-65
2021/06/28 10:07:24;;;;;;;;;;;53.00;20.80;;;;;;4972127;28;20363;-65
2021/06/28 10:10:08;;;;;;;;;;;53.20;20.90;;;;;;4972767;28;20025;-65
2021/06/28 10:12:33;;;;;;;;;;;53.90;21.10;;;;;;4971885;28;20029;-66
2021/06/28 10:15:00;;;;;;;;;;;53.80;20.30;;;;;;4959357;28;20005;-65
2021/06/28 10:17:25;;;;;;;;;;;53.10;20.50;;;;;;4952598;28;19927;-64
2021/06/28 10:19:51;;;;;;;;;;;52.80;20.90;;;;;;4953710;28;20065;-65
2021/06/28 10:22:17;;;;;;;;;;;53.20;21.00;;;;;;4953810;28;19965;-65
2021/06/28 10:24:42;;;;;;;;;;;54.00;21.10;;;;;;4953072;28;19926;-66
2021/06/28 10:27:08;;;;;;;;;;;54.50;20.70;;;;;;4953051;28;20450;-65
2021/06/28 10:29:34;;;;;;;;;;;54.30;20.30;;;;;;4953441;28;19958;-65
2021/06/28 10:32:07;;;;;;;;;;;54.00;20.60;;;;;;4951653;28;19919;-66
2021/06/28 10:34:33;;;;;;;;;;;53.20;20.30;;;;;;4958649;28;20398;-65
2021/06/28 10:37:01;;;;;;;;;;;49.90;20.40;;;;;;4966416;28;19918;-63
2021/06/28 10:39:30;;;;;;;;;;;48.40;21.70;;;;;;4959708;28;19953;-70
2021/06/28 10:41:57;;;;;;;;;;;49.60;22.60;;;;;;4962228;28;19950;-66
2021/06/28 10:44:23;;;;;;;;;;;51.50;22.20;;;;;;4966174;28;19921;-65
2021/06/28 10:46:50;;;;;;;;;;;52.70;21.90;;;;;;4955710;28;19930;-65
2021/06/28 10:49:17;;;;;;;;;;;53.60;21.30;;;;;;4967559;28;19962;-66
2021/06/28 10:51:46;;;;;;;;;;;54.00;20.80;;;;;;4961012;28;19918;-65
2021/06/28 10:54:14;;;;;;;;;;;53.80;20.70;;;;;;4957015;28;20363;-65
2021/06/28 10:56:41;;;;;;;;;;;54.20;20.90;;;;;;4967672;28;19933;-66
2021/06/28 10:59:16;;;;;;;;;;;54.60;20.50;;;;;;4955558;28;19948;-66
2021/06/28 11:01:42;;;;;;;;;;;53.50;19.90;;;;;;4962223;28;19922;-64
2021/06/28 11:04:09;;;;;;;;;;;51.40;20.20;;;;;;4978165;28;19926;-65
2021/06/28 11:06:36;;;;;;;;;;;51.20;21.10;;;;;;4955692;28;20009;-65
2021/06/28 11:09:05;;;;;;;;;;;52.00;21.20;;;;;;4968009;28;20563;-65
2021/06/28 11:11:43;;;;;;;;;;;50.70;20.30;;;;;;4958535;28;19956;-65
2021/06/28 11:14:09;;;;;;;;;;;47.30;20.80;;;;;;4959678;28;19954;-64
2021/06/28 11:16:35;;;;;;;;;;;43.90;21.70;;;;;;4966243;28;19926;-63
2021/06/28 11:19:00;;;;;;;;;;;41.80;22.90;;;;;;4954990;28;20007;-63
2021/06/28 11:21:37;;;;;;;;;;;40.80;23.90;;;;;;4964895;28;19923;-63
2021/06/28 11:24:02;;;;;;;;;;;41.60;24.90;;;;;;4961240;28;19973;-64
2021/06/28 11:26:32;;;;;;;;;;;42.70;24.70;;;;;;4956710;28;20346;-64
2021/06/28 11:28:58;;;;;;;;;;;43.40;24.20;;;;;;4967269;28;20350;-63
2021/06/28 11:31:28;;;;;;;;;;;43.70;24.20;;;;;;4958921;28;19953;-64
2021/06/28 11:33:55;;;;;;;;;;;44.50;24.40;;;;;;4976091;28;19918;-65
2021/06/28 11:36:30;;;;;;;;;;;44.70;24.50;;;;;;4954411;28;20017;-63
2021/06/28 11:39:24;;;;;;;;;;;45.00;24.20;;;;;;4965233;28;20358;-64
2021/06/28 11:42:09;;;;;;;;;;;44.30;23.70;;;;;;4962696;28;19929;-64
2021/06/28 11:44:47;;;;;;;;;;;43.40;23.90;;;;;;4954620;28;19923;-66
2021/06/28 11:47:13;;;;;;;;;;;42.60;24.20;;;;;;4969818;28;19922;-63
2021/06/28 11:49:38;;;;;;;;;;;41.80;24.30;;;;;;4963480;28;20558;-66
2021/06/28 11:52:12;;;;;;;;;;;41.30;24.60;;;;;;4961927;28;20294;-64
2021/06/28 11:54:38;;;;;;;;;;;40.80;24.80;;;;;;4968457;28;20346;-66
2021/06/28 11:57:06;;;;;;;;;;;40.40;24.50;;;;;;4969539;28;19927;-65
2021/06/28 11:59:32;;;;;;;;;;;39.90;24.60;;;;;;4957640;28;19926;-65
2021/06/28 12:02:00;;;;;;;;;;;39.20;24.80;;;;;;4965480;28;19918;-66
2021/06/28 12:04:27;;;;;;;;;;;39.20;25.50;;;;;;4960582;28;19954;-66
2021/06/28 12:06:53;;;;;;;;;;;39.60;25.70;;;;;;4961453;28;20331;-62
2021/06/28 12:09:20;;;;;;;;;;;40.40;25.90;;;;;;4969896;28;19957;-63
2021/06/28 12:11:51;;;;;;;;;;;40.90;25.40;;;;;;4963176;28;19918;-62
2021/06/28 12:14:48;;;;;;;;;;;40.80;25.20;;;;;;4961868;28;19944;-63
2021/06/28 12:17:15;;;;;;;;;;;40.10;25.40;;;;;;4964000;28;19935;-62
2021/06/28 12:19:42;;;;;;;;;;;39.40;25.50;;;;;;4963118;28;19945;-65
2021/06/28 12:22:09;;;;;;;;;;;38.70;25.90;;;;;;4963621;28;19962;-64
2021/06/28 12:24:35;;;;;;;;;;;38.10;26.00;;;;;;4968913;28;19914;-65
2021/06/28 12:27:02;;;;;;;;;;;37.30;26.20;;;;;;4968007;28;19940;-65
2021/06/28 12:29:32;;;;;;;;;;;36.50;27.10;;;;;;4969290;28;20430;-64
2021/06/28 12:31:58;;;;;;;;;;;36.00;27.20;;;;;;4966147;28;19922;-64
2021/06/28 12:34:24;;;;;;;;;;;35.70;27.90;;;;;;4967535;28;20174;-64
2021/06/28 12:36:50;;;;;;;;;;;35.70;27.90;;;;;;4965438;28;20668;-64
2021/06/28 12:39:26;;;;;;;;;;;35.50;28.10;;;;;;4950810;28;19923;-63
2021/06/28 12:41:51;;;;;;;;;;;35.30;28.40;;;;;;4966387;28;19918;-63
2021/06/28 12:44:18;;;;;;;;;;;35.50;28.60;;;;;;4970734;28;20291;-63
2021/06/28 12:46:44;;;;;;;;;;;35.40;28.40;;;;;;4971263;28;19922;-65
2021/06/28 12:49:10;;;;;;;;;;;35.50;28.50;;;;;;4970013;28;19918;-65
2021/06/28 12:51:38;;;;;;;;;;;35.30;28.50;;;;;;4964395;28;22493;-64
2021/06/28 12:54:03;;;;;;;;;;;35.10;28.60;;;;;;4965914;28;19922;-64
2021/06/28 12:56:32;;;;;;;;;;;34.90;28.90;;;;;;4964556;28;20057;-65
2021/06/28 12:58:59;;;;;;;;;;;34.70;29.50;;;;;;4965001;28;20260;-65
2021/06/28 13:01:29;;;;;;;;;;;34.60;29.30;;;;;;4963369;28;19982;-65
2021/06/28 13:03:54;;;;;;;;;;;34.60;29.40;;;;;;4966678;28;19922;-64
2021/06/28 13:06:21;;;;;;;;;;;34.70;29.60;;;;;;4962045;28;20017;-65
2021/06/28 13:08:48;;;;;;;;;;;34.60;29.50;;;;;;4962230;28;20177;-64
2021/06/28 13:11:15;;;;;;;;;;;34.50;29.70;;;;;;4964234;28;19918;-65
2021/06/28 13:13:41;;;;;;;;;;;34.40;29.80;;;;;;4963635;28;20383;-65
2021/06/28 13:16:07;;;;;;;;;;;34.40;30.00;;;;;;4965883;28;20375;-64
2021/06/28 13:18:33;;;;;;;;;;;34.40;30.00;;;;;;4964854;28;19919;-64
2021/06/28 13:21:03;;;;;;;;;;;34.20;30.00;;;;;;4965728;28;19997;-65
2021/06/28 13:23:28;;;;;;;;;;;34.10;30.40;;;;;;4964558;28;19925;-64
2021/06/28 13:25:54;;;;;;;;;;;33.90;30.40;;;;;;4965439;28;19922;-65
2021/06/28 13:28:19;;;;;;;;;;;33.50;30.40;;;;;;4960904;28;19957;-65
2021/06/28 13:30:45;;;;;;;;;;;33.00;30.90;;;;;;4962556;28;19918;-64
2021/06/28 13:33:12;;;;;;;;;;;32.60;31.30;;;;;;4962944;28;19922;-64
2021/06/28 13:35:39;;;;;;;;;;;32.50;31.90;;;;;;4965714;28;19918;-65
2021/06/28 13:38:06;;;;;;;;;;;32.50;32.10;;;;;;4965136;28;19925;-65
2021/06/28 13:40:32;;;;;;;;;;;32.60;32.00;;;;;;4965355;28;19949;-63
2021/06/28 13:42:58;;;;;;;;;;;32.50;32.00;;;;;;4964845;28;19988;-64
2021/06/28 13:45:27;;;;;;;;;;;32.20;32.20;;;;;;4963207;28;20358;-64
2021/06/28 13:47:54;;;;;;;;;;;31.80;32.20;;;;;;4964844;28;20017;-64
2021/06/28 13:50:25;;;;;;;;;;;31.50;32.60;;;;;;4963705;28;19925;-64
2021/06/28 13:52:50;;;;;;;;;;;31.50;33.10;;;;;;4965883;28;19926;-64
2021/06/28 13:55:16;;;;;;;;;;;31.70;33.30;;;;;;4962707;28;19929;-63
2021/06/28 13:57:43;;;;;;;;;;;31.90;33.30;;;;;;4962189;28;19926;-64
2021/06/28 14:00:08;;;;;;;;;;;32.10;33.50;;;;;;4963524;28;19919;-63
2021/06/28 14:05:26;;;;;;;;;;;32.20;32.80;;;;;;4999733;27;19933;-61
2021/06/28 14:07:52;;;;;;;;;;;32.00;33.30;;;;;;4978217;28;19918;-62
2021/06/28 14:10:17;;;;;;;;;;;32.00;33.60;;;;;;4994936;28;19923;-64
2021/06/28 14:12:43;;;;;;;;;;;32.00;33.50;;;;;;4995235;28;19929;-64
2021/06/28 14:15:10;;;;;;;;;;;31.90;33.60;;;;;;5016958;28;19917;-63
2021/06/28 14:17:36;;;;;;;;;;;31.70;33.00;;;;;;5005376;28;19926;-63